Flight Track Log - Related Links

Times and Time Zones

All times are in EDT time to prevent confusion due to time zone crossing. See the SWA534 flight status page for this flight to view local times or setup timezone preferences in your user account.

Time Position Orientation Groundspeed Altitude Reporting Facility
EDT Latitude Longitude Course Direction KTS MPH feet Rate Location/Type
05:17PM 33.9500 -118.4833 270° West 196 226 2,000  Level Southern California TRACON
05:18PM 33.9500 -118.5667 270° West 265 305 3,900 2,359 Climbing Southern California TRACON
05:19PM 34.0058 -118.6753 302° West 287 330 7,700 1,937 Climbing Los Angeles Center
05:21PM 34.0917 -118.6642 North 318 366 9,000 1,226 Climbing Los Angeles Center
05:22PM 34.1953 -118.6731 356° North 311 358 10,500 1,680 Climbing Los Angeles Center
05:23PM 34.2889 -118.6892 352° North 329 379 12,500 2,274 Climbing Los Angeles Center
05:24PM 34.3894 -118.7044 353° North 358 412 15,200 2,274 Climbing Los Angeles Center
05:25PM 34.4917 -118.7194 353° North 366 421 17,200 1,935 Climbing Los Angeles Center
05:26PM 34.5961 -118.7572 343° North 393 452 19,200 1,968 Climbing Los Angeles Center
05:27PM 34.6972 -118.8111 336° Northwest 398 458 21,300 2,064 Climbing Los Angeles Center
05:28PM 34.8233 -118.8825 335° Northwest 429 494 23,500 1,839 Climbing Los Angeles Center
05:29PM 34.9061 -118.9603 322° Northwest 418 481 25,100 1,481 Climbing Los Angeles Center
05:30PM 35.0531 -119.1050 321° Northwest 425 489 27,300 1,403 Climbing Oakland Center
05:31PM 35.1114 -119.1614 322° Northwest 438 504 28,000 1,149 Climbing Los Angeles Center
05:32PM 35.2092 -119.2575 321° Northwest 449 517 29,100 1,113 Climbing Los Angeles Center
05:33PM 35.3086 -119.3547 321° Northwest 456 525 30,300 1,258 Climbing Los Angeles Center
05:34PM 35.4092 -119.4522 322° Northwest 461 531 31,700 1,210 Climbing Los Angeles Center
05:35PM 35.5058 -119.5503 320° Northwest 456 525 32,800 1,152 Climbing Los Angeles Center
05:36PM 35.6228 -119.6667 321° Northwest 453 521 34,100 1,152 Climbing Los Angeles Center
05:37PM 35.7217 -119.7672 320° Northwest 459 528 35,200 919 Climbing Los Angeles Center
05:38PM 35.8200 -119.8667 321° Northwest 460 529 36,000 339 Climbing Los Angeles Center
05:39PM 35.9192 -119.9667 321° Northwest 463 533 35,900  Descending Los Angeles Center
05:40PM 36.0189 -120.0675 321° Northwest 466 536 36,000 -387 Climbing Los Angeles Center
05:41PM 36.1389 -120.1889 321° Northwest 468 539 35,100 -954 Descending Los Angeles Center
05:43PM 36.2725 -120.3250 321° Northwest 453 521 33,600 -1,000 Descending Oakland Center
05:44PM 36.3678 -120.4217 321° Northwest 446 513 32,600 -2,000 Descending Oakland Center
05:45PM 36.4633 -120.5192 321° Northwest 446 513 29,500 -2,226 Descending Oakland Center
05:46PM 36.5603 -120.6200 320° Northwest 454 522 28,000 -1,790 Descending Oakland Center
05:47PM 36.6739 -120.7378 320° Northwest 448 516 25,800 -2,129 Descending Oakland Center
05:48PM 36.7625 -120.8333 319° Northwest 430 495 23,600 -2,177 Descending Oakland Center
05:49PM 36.8528 -120.9394 317° Northwest 411 473 21,300 -2,129 Descending Oakland Center
05:50PM 36.9350 -121.0319 318° Northwest 398 458 19,200 -2,081 Descending Oakland Center
05:51PM 37.0136 -121.1233 317° Northwest 388 447 17,000 -2,032 Descending Oakland Center
05:52PM 37.0892 -121.2106 317° Northwest 373 429 15,000 -1,935 Descending Oakland Center
05:53PM 37.1636 -121.2981 317° Northwest 366 421 13,000 -1,887 Descending Oakland Center
05:54PM 37.2364 -121.3800 318° Northwest 354 407 11,100 -1,452 Descending Oakland Center
05:55PM 37.3042 -121.4614 316° Northwest 339 390 10,000 -1,412 Descending Oakland Center
05:56PM 37.3833 -121.5333 324° Northwest 312 359 8,300 -1,436 Descending Northern Cal TRACON
05:57PM 37.4333 -121.6167 307° West 301 346 7,200 -1,200 Descending Northern Cal TRACON
05:58PM 37.4833 -121.7000 307° West 287 330 5,900 -600 Descending Northern Cal TRACON
05:59PM 37.5167 -121.7833 297° West 277 319 6,000 50 Climbing Northern Cal TRACON
06:00PM 37.5500 -121.8833 293° West 281 323 6,000 -600 Level Northern Cal TRACON
06:01PM 37.5667 -121.9667 284° West 279 321 4,800 -1,000 Descending Northern Cal TRACON
06:02PM 37.6000 -122.0500 297° West 253 291 4,000 -500 Descending Northern Cal TRACON
06:03PM 37.6333 -122.1167 302° West 184 212 3,800 -1,000 Descending Northern Cal TRACON
06:04PM 37.6667 -122.1500 322° Northwest 151 174 2,000 -1,550 Descending Northern Cal TRACON
06:05PM 37.6833 -122.1833 302° West 125 144 700 -1,300 Descending Northern Cal TRACON
06:09PM 37.7167 -122.2167 270° West  Level FlightAware Approximate

Login

Don't have an account? Register now (free) for customized features, flight alerts, and more!